sensor_id;sensor_type;location;lat;lon;timestamp;P1;durP1;ratioP1;P2;durP2;ratioP2
16115;SDS011;8162;47.104;15.432;2024-02-16T00:00:43;5.50;;;3.77;;
16115;SDS011;8162;47.104;15.432;2024-02-16T00:03:46;5.50;;;3.77;;
16115;SDS011;8162;47.104;15.432;2024-02-16T00:06:47;6.03;;;4.27;;
16115;SDS011;8162;47.104;15.432;2024-02-16T00:09:49;5.67;;;3.57;;
16115;SDS011;8162;47.104;15.432;2024-02-16T00:12:49;4.20;;;3.60;;
16115;SDS011;8162;47.104;15.432;2024-02-16T00:15:50;7.20;;;4.27;;
16115;SDS011;8162;47.104;15.432;2024-02-16T00:18:51;6.10;;;3.80;;
16115;SDS011;8162;47.104;15.432;2024-02-16T00:21:51;6.30;;;3.30;;
16115;SDS011;8162;47.104;15.432;2024-02-16T00:24:52;5.57;;;4.50;;
16115;SDS011;8162;47.104;15.432;2024-02-16T00:27:53;5.50;;;3.60;;
16115;SDS011;8162;47.104;15.432;2024-02-16T00:30:53;5.13;;;4.00;;
16115;SDS011;8162;47.104;15.432;2024-02-16T00:33:54;5.63;;;3.77;;
16115;SDS011;8162;47.104;15.432;2024-02-16T00:36:55;4.87;;;3.93;;
16115;SDS011;8162;47.104;15.432;2024-02-16T00:39:55;3.77;;;3.30;;
16115;SDS011;8162;47.104;15.432;2024-02-16T00:42:56;5.20;;;3.40;;
16115;SDS011;8162;47.104;15.432;2024-02-16T00:45:57;4.87;;;3.87;;
16115;SDS011;8162;47.104;15.432;2024-02-16T00:48:57;4.70;;;3.50;;
16115;SDS011;8162;47.104;15.432;2024-02-16T00:51:58;6.20;;;3.63;;
16115;SDS011;8162;47.104;15.432;2024-02-16T00:54:59;3.67;;;3.00;;
16115;SDS011;8162;47.104;15.432;2024-02-16T00:58:00;6.43;;;3.83;;
16115;SDS011;8162;47.104;15.432;2024-02-16T01:01:00;4.40;;;3.07;;
16115;SDS011;8162;47.104;15.432;2024-02-16T01:04:01;5.83;;;3.30;;
16115;SDS011;8162;47.104;15.432;2024-02-16T01:07:02;4.63;;;3.40;;
16115;SDS011;8162;47.104;15.432;2024-02-16T01:10:03;5.10;;;3.30;;
16115;SDS011;8162;47.104;15.432;2024-02-16T01:13:04;4.97;;;3.93;;
16115;SDS011;8162;47.104;15.432;2024-02-16T01:16:05;3.47;;;2.87;;
16115;SDS011;8162;47.104;15.432;2024-02-16T01:19:07;4.23;;;3.17;;
16115;SDS011;8162;47.104;15.432;2024-02-16T01:22:09;4.27;;;2.97;;
16115;SDS011;8162;47.104;15.432;2024-02-16T01:25:10;3.87;;;3.30;;
16115;SDS011;8162;47.104;15.432;2024-02-16T01:28:11;5.33;;;3.40;;
16115;SDS011;8162;47.104;15.432;2024-02-16T01:31:12;4.90;;;3.47;;
16115;SDS011;8162;47.104;15.432;2024-02-16T01:34:13;5.33;;;3.67;;
16115;SDS011;8162;47.104;15.432;2024-02-16T01:37:13;4.33;;;3.30;;
16115;SDS011;8162;47.104;15.432;2024-02-16T01:40:14;3.93;;;3.43;;
16115;SDS011;8162;47.104;15.432;2024-02-16T01:43:20;5.13;;;3.43;;
16115;SDS011;8162;47.104;15.432;2024-02-16T01:46:21;7.17;;;4.17;;
16115;SDS011;8162;47.104;15.432;2024-02-16T01:49:23;3.73;;;3.30;;
16115;SDS011;8162;47.104;15.432;2024-02-16T01:52:23;4.30;;;3.40;;
16115;SDS011;8162;47.104;15.432;2024-02-16T01:55:24;4.00;;;3.10;;
16115;SDS011;8162;47.104;15.432;2024-02-16T01:58:26;4.47;;;2.80;;
16115;SDS011;8162;47.104;15.432;2024-02-16T02:01:27;4.23;;;2.83;;
16115;SDS011;8162;47.104;15.432;2024-02-16T02:04:28;4.27;;;3.23;;
16115;SDS011;8162;47.104;15.432;2024-02-16T02:07:30;4.00;;;3.13;;
16115;SDS011;8162;47.104;15.432;2024-02-16T02:10:32;5.60;;;3.37;;
16115;SDS011;8162;47.104;15.432;2024-02-16T02:13:33;4.83;;;2.93;;
16115;SDS011;8162;47.104;15.432;2024-02-16T02:16:34;4.80;;;3.23;;
16115;SDS011;8162;47.104;15.432;2024-02-16T02:19:36;5.23;;;2.90;;
16115;SDS011;8162;47.104;15.432;2024-02-16T02:22:37;5.30;;;3.60;;
16115;SDS011;8162;47.104;15.432;2024-02-16T02:25:38;3.70;;;2.70;;
16115;SDS011;8162;47.104;15.432;2024-02-16T02:28:40;4.43;;;3.27;;
16115;SDS011;8162;47.104;15.432;2024-02-16T02:31:41;4.93;;;3.00;;
16115;SDS011;8162;47.104;15.432;2024-02-16T02:34:42;5.03;;;3.03;;
16115;SDS011;8162;47.104;15.432;2024-02-16T02:37:43;4.20;;;3.13;;
16115;SDS011;8162;47.104;15.432;2024-02-16T02:40:44;5.03;;;3.13;;
16115;SDS011;8162;47.104;15.432;2024-02-16T02:43:45;3.93;;;3.63;;
16115;SDS011;8162;47.104;15.432;2024-02-16T02:46:47;3.23;;;2.53;;
16115;SDS011;8162;47.104;15.432;2024-02-16T02:49:48;3.37;;;3.07;;
16115;SDS011;8162;47.104;15.432;2024-02-16T02:52:49;4.13;;;3.17;;
16115;SDS011;8162;47.104;15.432;2024-02-16T02:55:50;4.30;;;3.07;;
16115;SDS011;8162;47.104;15.432;2024-02-16T02:58:51;4.63;;;3.67;;
16115;SDS011;8162;47.104;15.432;2024-02-16T03:01:52;3.60;;;2.70;;
16115;SDS011;8162;47.104;15.432;2024-02-16T03:04:53;5.37;;;2.70;;
16115;SDS011;8162;47.104;15.432;2024-02-16T03:07:54;4.00;;;3.00;;
16115;SDS011;8162;47.104;15.432;2024-02-16T03:10:55;4.73;;;3.47;;
16115;SDS011;8162;47.104;15.432;2024-02-16T03:13:56;4.27;;;2.63;;
16115;SDS011;8162;47.104;15.432;2024-02-16T03:16:58;4.27;;;3.23;;
16115;SDS011;8162;47.104;15.432;2024-02-16T03:19:59;3.83;;;2.83;;
16115;SDS011;8162;47.104;15.432;2024-02-16T03:23:00;4.40;;;3.00;;
16115;SDS011;8162;47.104;15.432;2024-02-16T03:26:01;4.10;;;3.23;;
16115;SDS011;8162;47.104;15.432;2024-02-16T03:29:02;4.60;;;2.83;;
16115;SDS011;8162;47.104;15.432;2024-02-16T03:32:03;4.30;;;3.27;;
16115;SDS011;8162;47.104;15.432;2024-02-16T03:35:04;4.40;;;3.33;;
16115;SDS011;8162;47.104;15.432;2024-02-16T03:38:06;5.30;;;3.30;;
16115;SDS011;8162;47.104;15.432;2024-02-16T03:41:08;4.40;;;3.13;;
16115;SDS011;8162;47.104;15.432;2024-02-16T03:44:12;4.50;;;2.93;;
16115;SDS011;8162;47.104;15.432;2024-02-16T03:47:13;5.27;;;3.17;;
16115;SDS011;8162;47.104;15.432;2024-02-16T03:50:14;3.60;;;2.90;;
16115;SDS011;8162;47.104;15.432;2024-02-16T03:53:15;3.60;;;2.57;;
16115;SDS011;8162;47.104;15.432;2024-02-16T03:56:19;4.33;;;3.00;;
16115;SDS011;8162;47.104;15.432;2024-02-16T03:59:21;3.90;;;3.27;;
16115;SDS011;8162;47.104;15.432;2024-02-16T04:02:23;4.57;;;3.20;;
16115;SDS011;8162;47.104;15.432;2024-02-16T04:05:24;5.00;;;3.30;;
16115;SDS011;8162;47.104;15.432;2024-02-16T04:08:31;3.47;;;2.70;;
16115;SDS011;8162;47.104;15.432;2024-02-16T04:11:32;5.87;;;3.43;;
16115;SDS011;8162;47.104;15.432;2024-02-16T04:14:33;4.87;;;2.97;;
16115;SDS011;8162;47.104;15.432;2024-02-16T04:17:34;4.43;;;2.87;;
16115;SDS011;8162;47.104;15.432;2024-02-16T04:20:36;5.70;;;3.13;;
16115;SDS011;8162;47.104;15.432;2024-02-16T04:23:37;5.40;;;3.00;;
16115;SDS011;8162;47.104;15.432;2024-02-16T04:26:39;5.27;;;2.77;;
16115;SDS011;8162;47.104;15.432;2024-02-16T04:29:40;4.90;;;3.40;;
16115;SDS011;8162;47.104;15.432;2024-02-16T04:32:41;7.03;;;3.33;;
16115;SDS011;8162;47.104;15.432;2024-02-16T04:35:42;3.20;;;2.87;;
16115;SDS011;8162;47.104;15.432;2024-02-16T04:38:46;5.87;;;3.33;;
16115;SDS011;8162;47.104;15.432;2024-02-16T04:41:47;6.80;;;3.33;;
16115;SDS011;8162;47.104;15.432;2024-02-16T04:44:48;4.33;;;2.83;;
16115;SDS011;8162;47.104;15.432;2024-02-16T04:47:49;3.90;;;3.50;;
16115;SDS011;8162;47.104;15.432;2024-02-16T04:50:51;6.77;;;3.30;;
16115;SDS011;8162;47.104;15.432;2024-02-16T04:53:52;4.87;;;3.13;;
16115;SDS011;8162;47.104;15.432;2024-02-16T04:56:53;4.67;;;3.17;;
16115;SDS011;8162;47.104;15.432;2024-02-16T04:59:54;5.43;;;3.70;;
16115;SDS011;8162;47.104;15.432;2024-02-16T05:02:55;5.17;;;3.70;;
16115;SDS011;8162;47.104;15.432;2024-02-16T05:05:56;7.40;;;3.17;;
16115;SDS011;8162;47.104;15.432;2024-02-16T05:08:57;4.27;;;3.00;;
16115;SDS011;8162;47.104;15.432;2024-02-16T05:11:58;5.13;;;3.53;;
16115;SDS011;8162;47.104;15.432;2024-02-16T05:14:59;3.07;;;2.63;;
16115;SDS011;8162;47.104;15.432;2024-02-16T05:18:00;4.60;;;3.37;;
16115;SDS011;8162;47.104;15.432;2024-02-16T05:21:01;4.40;;;3.17;;
16115;SDS011;8162;47.104;15.432;2024-02-16T05:24:02;4.23;;;2.87;;
16115;SDS011;8162;47.104;15.432;2024-02-16T05:27:04;6.50;;;3.83;;
16115;SDS011;8162;47.104;15.432;2024-02-16T05:30:05;7.13;;;3.40;;
16115;SDS011;8162;47.104;15.432;2024-02-16T05:33:09;4.40;;;3.50;;
16115;SDS011;8162;47.104;15.432;2024-02-16T05:36:10;4.20;;;3.57;;
16115;SDS011;8162;47.104;15.432;2024-02-16T05:39:11;5.33;;;3.90;;
16115;SDS011;8162;47.104;15.432;2024-02-16T05:42:26;6.17;;;3.70;;
16115;SDS011;8162;47.104;15.432;2024-02-16T05:45:28;4.57;;;3.80;;
16115;SDS011;8162;47.104;15.432;2024-02-16T05:48:29;5.30;;;3.63;;
16115;SDS011;8162;47.104;15.432;2024-02-16T05:51:37;5.93;;;3.47;;
16115;SDS011;8162;47.104;15.432;2024-02-16T05:54:40;4.63;;;3.57;;
16115;SDS011;8162;47.104;15.432;2024-02-16T05:57:41;5.23;;;3.60;;
16115;SDS011;8162;47.104;15.432;2024-02-16T06:00:42;5.97;;;4.70;;
16115;SDS011;8162;47.104;15.432;2024-02-16T06:03:43;6.87;;;3.63;;
16115;SDS011;8162;47.104;15.432;2024-02-16T06:06:44;5.60;;;3.50;;
16115;SDS011;8162;47.104;15.432;2024-02-16T06:09:46;5.07;;;3.43;;
16115;SDS011;8162;47.104;15.432;2024-02-16T06:12:47;4.50;;;3.50;;
16115;SDS011;8162;47.104;15.432;2024-02-16T06:15:48;4.97;;;3.43;;
16115;SDS011;8162;47.104;15.432;2024-02-16T06:18:49;4.70;;;3.90;;
16115;SDS011;8162;47.104;15.432;2024-02-16T06:21:50;6.53;;;3.83;;
16115;SDS011;8162;47.104;15.432;2024-02-16T06:24:51;4.93;;;3.53;;
16115;SDS011;8162;47.104;15.432;2024-02-16T06:27:52;6.63;;;4.43;;
16115;SDS011;8162;47.104;15.432;2024-02-16T06:30:53;3.97;;;3.50;;
16115;SDS011;8162;47.104;15.432;2024-02-16T06:33:54;5.03;;;3.70;;
16115;SDS011;8162;47.104;15.432;2024-02-16T06:36:55;5.53;;;4.00;;
16115;SDS011;8162;47.104;15.432;2024-02-16T06:39:56;6.20;;;4.50;;
16115;SDS011;8162;47.104;15.432;2024-02-16T06:42:57;6.03;;;4.07;;
16115;SDS011;8162;47.104;15.432;2024-02-16T06:45:58;6.03;;;4.40;;
16115;SDS011;8162;47.104;15.432;2024-02-16T06:48:58;5.87;;;4.20;;
16115;SDS011;8162;47.104;15.432;2024-02-16T06:51:59;7.83;;;3.90;;
16115;SDS011;8162;47.104;15.432;2024-02-16T06:55:00;6.77;;;4.40;;
16115;SDS011;8162;47.104;15.432;2024-02-16T06:58:00;6.90;;;4.03;;
16115;SDS011;8162;47.104;15.432;2024-02-16T07:01:02;6.30;;;4.00;;
16115;SDS011;8162;47.104;15.432;2024-02-16T07:04:03;7.47;;;4.07;;
16115;SDS011;8162;47.104;15.432;2024-02-16T07:07:05;9.77;;;4.67;;
16115;SDS011;8162;47.104;15.432;2024-02-16T07:10:07;6.43;;;3.80;;
16115;SDS011;8162;47.104;15.432;2024-02-16T07:13:13;7.07;;;4.53;;
16115;SDS011;8162;47.104;15.432;2024-02-16T07:16:14;4.57;;;4.00;;
16115;SDS011;8162;47.104;15.432;2024-02-16T07:19:15;6.83;;;4.90;;
16115;SDS011;8162;47.104;15.432;2024-02-16T07:22:17;5.93;;;5.10;;
16115;SDS011;8162;47.104;15.432;2024-02-16T07:25:18;5.83;;;4.90;;
16115;SDS011;8162;47.104;15.432;2024-02-16T07:28:19;6.60;;;5.87;;
16115;SDS011;8162;47.104;15.432;2024-02-16T07:31:20;5.80;;;5.20;;
16115;SDS011;8162;47.104;15.432;2024-02-16T07:34:21;6.50;;;5.77;;
16115;SDS011;8162;47.104;15.432;2024-02-16T07:37:23;6.43;;;5.37;;
16115;SDS011;8162;47.104;15.432;2024-02-16T07:40:24;6.53;;;5.10;;
16115;SDS011;8162;47.104;15.432;2024-02-16T07:43:26;5.90;;;5.30;;
16115;SDS011;8162;47.104;15.432;2024-02-16T07:46:27;6.80;;;5.23;;
16115;SDS011;8162;47.104;15.432;2024-02-16T07:49:28;8.00;;;6.00;;
16115;SDS011;8162;47.104;15.432;2024-02-16T07:52:29;9.23;;;6.00;;
16115;SDS011;8162;47.104;15.432;2024-02-16T07:55:30;6.03;;;4.93;;
16115;SDS011;8162;47.104;15.432;2024-02-16T07:58:31;8.80;;;5.83;;
16115;SDS011;8162;47.104;15.432;2024-02-16T08:01:32;6.63;;;4.87;;
16115;SDS011;8162;47.104;15.432;2024-02-16T08:04:33;11.77;;;7.40;;
16115;SDS011;8162;47.104;15.432;2024-02-16T08:07:34;10.47;;;7.10;;
16115;SDS011;8162;47.104;15.432;2024-02-16T08:10:35;10.73;;;5.63;;
16115;SDS011;8162;47.104;15.432;2024-02-16T08:13:36;9.57;;;6.53;;
16115;SDS011;8162;47.104;15.432;2024-02-16T08:16:37;8.83;;;5.97;;
16115;SDS011;8162;47.104;15.432;2024-02-16T08:19:38;9.93;;;7.27;;
16115;SDS011;8162;47.104;15.432;2024-02-16T08:22:40;6.93;;;5.00;;
16115;SDS011;8162;47.104;15.432;2024-02-16T08:25:41;8.83;;;6.07;;
16115;SDS011;8162;47.104;15.432;2024-02-16T08:28:43;8.33;;;6.20;;
16115;SDS011;8162;47.104;15.432;2024-02-16T08:31:45;9.63;;;6.57;;
16115;SDS011;8162;47.104;15.432;2024-02-16T08:34:46;9.00;;;6.60;;
16115;SDS011;8162;47.104;15.432;2024-02-16T08:37:50;9.83;;;6.90;;
16115;SDS011;8162;47.104;15.432;2024-02-16T08:40:51;8.17;;;6.13;;
16115;SDS011;8162;47.104;15.432;2024-02-16T08:43:52;11.57;;;6.53;;
16115;SDS011;8162;47.104;15.432;2024-02-16T08:46:53;11.93;;;6.90;;
16115;SDS011;8162;47.104;15.432;2024-02-16T08:49:54;11.30;;;7.33;;
16115;SDS011;8162;47.104;15.432;2024-02-16T08:52:55;9.13;;;6.30;;
16115;SDS011;8162;47.104;15.432;2024-02-16T08:55:56;7.43;;;6.27;;
16115;SDS011;8162;47.104;15.432;2024-02-16T08:58:57;6.87;;;6.03;;
16115;SDS011;8162;47.104;15.432;2024-02-16T09:01:58;7.73;;;6.50;;
16115;SDS011;8162;47.104;15.432;2024-02-16T09:05:00;7.97;;;5.53;;
16115;SDS011;8162;47.104;15.432;2024-02-16T09:08:01;8.30;;;7.10;;
16115;SDS011;8162;47.104;15.432;2024-02-16T09:11:03;8.23;;;6.03;;
16115;SDS011;8162;47.104;15.432;2024-02-16T09:14:07;8.40;;;6.63;;
16115;SDS011;8162;47.104;15.432;2024-02-16T09:17:08;8.73;;;6.37;;
16115;SDS011;8162;47.104;15.432;2024-02-16T09:20:10;10.80;;;7.10;;
16115;SDS011;8162;47.104;15.432;2024-02-16T09:23:11;10.50;;;7.17;;
16115;SDS011;8162;47.104;15.432;2024-02-16T09:26:12;12.30;;;6.83;;
16115;SDS011;8162;47.104;15.432;2024-02-16T09:29:14;12.20;;;6.53;;
16115;SDS011;8162;47.104;15.432;2024-02-16T09:32:15;10.20;;;6.87;;
16115;SDS011;8162;47.104;15.432;2024-02-16T09:35:16;10.73;;;7.40;;
16115;SDS011;8162;47.104;15.432;2024-02-16T09:38:17;8.70;;;7.17;;
16115;SDS011;8162;47.104;15.432;2024-02-16T09:41:18;9.03;;;7.30;;
16115;SDS011;8162;47.104;15.432;2024-02-16T09:44:20;9.93;;;7.30;;
16115;SDS011;8162;47.104;15.432;2024-02-16T09:47:21;10.50;;;8.27;;
16115;SDS011;8162;47.104;15.432;2024-02-16T09:50:23;9.37;;;7.23;;
16115;SDS011;8162;47.104;15.432;2024-02-16T09:53:25;10.53;;;8.37;;
16115;SDS011;8162;47.104;15.432;2024-02-16T09:56:26;10.50;;;8.17;;
16115;SDS011;8162;47.104;15.432;2024-02-16T09:59:27;9.97;;;7.27;;
16115;SDS011;8162;47.104;15.432;2024-02-16T10:02:28;10.03;;;6.97;;
16115;SDS011;8162;47.104;15.432;2024-02-16T10:05:28;10.27;;;7.83;;
16115;SDS011;8162;47.104;15.432;2024-02-16T10:08:30;9.70;;;8.17;;
16115;SDS011;8162;47.104;15.432;2024-02-16T10:11:31;12.97;;;8.03;;
16115;SDS011;8162;47.104;15.432;2024-02-16T10:14:32;9.90;;;8.17;;
16115;SDS011;8162;47.104;15.432;2024-02-16T10:17:34;12.93;;;7.70;;
16115;SDS011;8162;47.104;15.432;2024-02-16T10:20:35;15.20;;;9.83;;
16115;SDS011;8162;47.104;15.432;2024-02-16T10:23:36;11.80;;;8.37;;
16115;SDS011;8162;47.104;15.432;2024-02-16T10:26:37;11.67;;;7.77;;
16115;SDS011;8162;47.104;15.432;2024-02-16T10:29:39;12.87;;;8.03;;
16115;SDS011;8162;47.104;15.432;2024-02-16T10:32:40;10.67;;;8.33;;
16115;SDS011;8162;47.104;15.432;2024-02-16T10:35:42;13.43;;;10.10;;
16115;SDS011;8162;47.104;15.432;2024-02-16T10:38:44;12.27;;;9.27;;
16115;SDS011;8162;47.104;15.432;2024-02-16T10:41:46;13.17;;;9.90;;
16115;SDS011;8162;47.104;15.432;2024-02-16T10:44:47;12.90;;;10.50;;
16115;SDS011;8162;47.104;15.432;2024-02-16T10:47:49;12.03;;;9.47;;
16115;SDS011;8162;47.104;15.432;2024-02-16T10:50:51;11.07;;;8.90;;
16115;SDS011;8162;47.104;15.432;2024-02-16T10:53:53;12.17;;;9.93;;
16115;SDS011;8162;47.104;15.432;2024-02-16T10:56:56;15.33;;;9.47;;
16115;SDS011;8162;47.104;15.432;2024-02-16T10:59:57;13.47;;;10.13;;
16115;SDS011;8162;47.104;15.432;2024-02-16T11:03:01;13.23;;;9.60;;
16115;SDS011;8162;47.104;15.432;2024-02-16T11:06:11;10.77;;;8.97;;
16115;SDS011;8162;47.104;15.432;2024-02-16T11:12:33;10.70;;;8.63;;
16115;SDS011;8162;47.104;15.432;2024-02-16T11:15:35;10.30;;;8.67;;
16115;SDS011;8162;47.104;15.432;2024-02-16T11:18:38;16.60;;;9.40;;
16115;SDS011;8162;47.104;15.432;2024-02-16T11:21:39;14.57;;;9.93;;
16115;SDS011;8162;47.104;15.432;2024-02-16T11:24:58;11.50;;;9.60;;
16115;SDS011;8162;47.104;15.432;2024-02-16T11:27:59;13.43;;;9.40;;
16115;SDS011;8162;47.104;15.432;2024-02-16T11:31:01;12.07;;;10.07;;
16115;SDS011;8162;47.104;15.432;2024-02-16T11:34:02;11.70;;;10.33;;
16115;SDS011;8162;47.104;15.432;2024-02-16T11:37:04;13.40;;;9.57;;
16115;SDS011;8162;47.104;15.432;2024-02-16T11:40:05;13.53;;;8.97;;
16115;SDS011;8162;47.104;15.432;2024-02-16T11:43:08;14.83;;;10.07;;
16115;SDS011;8162;47.104;15.432;2024-02-16T11:46:16;11.07;;;8.47;;
16115;SDS011;8162;47.104;15.432;2024-02-16T11:49:18;10.23;;;9.00;;
16115;SDS011;8162;47.104;15.432;2024-02-16T11:52:19;10.63;;;8.53;;
16115;SDS011;8162;47.104;15.432;2024-02-16T11:55:20;11.07;;;8.50;;
16115;SDS011;8162;47.104;15.432;2024-02-16T11:58:21;9.43;;;8.30;;
16115;SDS011;8162;47.104;15.432;2024-02-16T12:01:23;14.57;;;9.40;;
16115;SDS011;8162;47.104;15.432;2024-02-16T12:04:25;11.67;;;9.80;;
16115;SDS011;8162;47.104;15.432;2024-02-16T12:07:27;11.27;;;8.93;;
16115;SDS011;8162;47.104;15.432;2024-02-16T12:10:29;10.60;;;8.47;;
16115;SDS011;8162;47.104;15.432;2024-02-16T12:13:30;10.27;;;8.27;;
16115;SDS011;8162;47.104;15.432;2024-02-16T12:16:31;8.40;;;7.37;;
16115;SDS011;8162;47.104;15.432;2024-02-16T12:19:32;10.73;;;7.80;;
16115;SDS011;8162;47.104;15.432;2024-02-16T12:22:33;12.07;;;7.80;;
16115;SDS011;8162;47.104;15.432;2024-02-16T12:25:35;8.43;;;7.60;;
16115;SDS011;8162;47.104;15.432;2024-02-16T12:28:36;11.27;;;8.47;;
16115;SDS011;8162;47.104;15.432;2024-02-16T12:31:37;10.13;;;8.23;;
16115;SDS011;8162;47.104;15.432;2024-02-16T12:34:40;9.30;;;8.27;;
16115;SDS011;8162;47.104;15.432;2024-02-16T12:37:41;12.97;;;7.97;;
16115;SDS011;8162;47.104;15.432;2024-02-16T12:40:42;12.50;;;8.67;;
16115;SDS011;8162;47.104;15.432;2024-02-16T12:43:43;8.87;;;7.80;;
16115;SDS011;8162;47.104;15.432;2024-02-16T12:46:45;8.67;;;7.20;;
16115;SDS011;8162;47.104;15.432;2024-02-16T12:49:46;8.27;;;7.40;;
16115;SDS011;8162;47.104;15.432;2024-02-16T12:52:47;8.80;;;7.00;;
16115;SDS011;8162;47.104;15.432;2024-02-16T12:55:48;9.50;;;6.87;;
16115;SDS011;8162;47.104;15.432;2024-02-16T12:58:49;9.67;;;7.63;;
16115;SDS011;8162;47.104;15.432;2024-02-16T13:01:50;8.10;;;7.30;;
16115;SDS011;8162;47.104;15.432;2024-02-16T13:04:51;8.10;;;6.70;;
16115;SDS011;8162;47.104;15.432;2024-02-16T13:07:54;9.80;;;7.30;;
16115;SDS011;8162;47.104;15.432;2024-02-16T13:10:58;9.00;;;6.53;;
16115;SDS011;8162;47.104;15.432;2024-02-16T13:13:59;8.53;;;7.13;;
16115;SDS011;8162;47.104;15.432;2024-02-16T13:17:00;8.90;;;7.13;;
16115;SDS011;8162;47.104;15.432;2024-02-16T13:20:01;10.10;;;7.23;;
16115;SDS011;8162;47.104;15.432;2024-02-16T13:23:09;8.47;;;6.63;;
16115;SDS011;8162;47.104;15.432;2024-02-16T13:26:10;6.87;;;6.03;;
16115;SDS011;8162;47.104;15.432;2024-02-16T13:29:11;7.10;;;6.10;;
16115;SDS011;8162;47.104;15.432;2024-02-16T13:32:12;8.87;;;6.57;;
16115;SDS011;8162;47.104;15.432;2024-02-16T13:35:14;11.07;;;6.03;;
16115;SDS011;8162;47.104;15.432;2024-02-16T13:38:15;8.17;;;6.30;;
16115;SDS011;8162;47.104;15.432;2024-02-16T13:41:16;9.77;;;7.67;;
16115;SDS011;8162;47.104;15.432;2024-02-16T13:44:17;8.33;;;6.40;;
16115;SDS011;8162;47.104;15.432;2024-02-16T13:47:18;8.93;;;5.93;;
16115;SDS011;8162;47.104;15.432;2024-02-16T13:50:19;12.83;;;6.60;;
16115;SDS011;8162;47.104;15.432;2024-02-16T13:53:20;7.80;;;6.00;;
16115;SDS011;8162;47.104;15.432;2024-02-16T13:56:23;8.10;;;5.73;;
16115;SDS011;8162;47.104;15.432;2024-02-16T13:59:24;7.87;;;6.80;;
16115;SDS011;8162;47.104;15.432;2024-02-16T14:02:25;7.90;;;5.97;;
16115;SDS011;8162;47.104;15.432;2024-02-16T14:05:26;6.37;;;5.77;;
16115;SDS011;8162;47.104;15.432;2024-02-16T14:08:27;6.30;;;5.70;;
16115;SDS011;8162;47.104;15.432;2024-02-16T14:11:27;7.60;;;6.43;;
16115;SDS011;8162;47.104;15.432;2024-02-16T14:14:28;8.07;;;6.37;;
16115;SDS011;8162;47.104;15.432;2024-02-16T14:17:28;7.63;;;5.87;;
16115;SDS011;8162;47.104;15.432;2024-02-16T14:20:29;7.30;;;6.50;;
16115;SDS011;8162;47.104;15.432;2024-02-16T14:23:30;6.83;;;6.13;;
16115;SDS011;8162;47.104;15.432;2024-02-16T14:26:31;7.17;;;6.43;;
16115;SDS011;8162;47.104;15.432;2024-02-16T14:29:32;9.03;;;6.97;;
16115;SDS011;8162;47.104;15.432;2024-02-16T14:32:33;9.60;;;7.23;;
16115;SDS011;8162;47.104;15.432;2024-02-16T14:35:33;7.93;;;6.90;;
16115;SDS011;8162;47.104;15.432;2024-02-16T14:38:36;9.10;;;6.83;;
16115;SDS011;8162;47.104;15.432;2024-02-16T14:41:37;6.77;;;6.07;;
16115;SDS011;8162;47.104;15.432;2024-02-16T14:44:37;9.53;;;7.43;;
16115;SDS011;8162;47.104;15.432;2024-02-16T14:47:38;8.80;;;7.90;;
16115;SDS011;8162;47.104;15.432;2024-02-16T14:50:39;9.00;;;7.57;;
16115;SDS011;8162;47.104;15.432;2024-02-16T14:53:40;8.87;;;7.87;;
16115;SDS011;8162;47.104;15.432;2024-02-16T14:56:41;8.10;;;6.90;;
16115;SDS011;8162;47.104;15.432;2024-02-16T14:59:42;9.87;;;6.80;;
16115;SDS011;8162;47.104;15.432;2024-02-16T15:02:43;10.57;;;6.60;;
16115;SDS011;8162;47.104;15.432;2024-02-16T15:05:43;8.77;;;7.40;;
16115;SDS011;8162;47.104;15.432;2024-02-16T15:08:44;10.10;;;6.87;;
16115;SDS011;8162;47.104;15.432;2024-02-16T15:11:45;8.07;;;7.23;;
16115;SDS011;8162;47.104;15.432;2024-02-16T15:14:47;9.60;;;7.23;;
16115;SDS011;8162;47.104;15.432;2024-02-16T15:17:48;7.90;;;6.17;;
16115;SDS011;8162;47.104;15.432;2024-02-16T15:20:49;12.63;;;8.07;;
16115;SDS011;8162;47.104;15.432;2024-02-16T15:23:50;8.67;;;7.77;;
16115;SDS011;8162;47.104;15.432;2024-02-16T15:26:51;8.00;;;7.10;;
16115;SDS011;8162;47.104;15.432;2024-02-16T15:29:53;7.37;;;6.63;;
16115;SDS011;8162;47.104;15.432;2024-02-16T15:32:53;10.13;;;7.30;;
16115;SDS011;8162;47.104;15.432;2024-02-16T15:35:54;9.60;;;7.50;;
16115;SDS011;8162;47.104;15.432;2024-02-16T15:38:57;8.63;;;7.50;;
16115;SDS011;8162;47.104;15.432;2024-02-16T15:41:58;11.87;;;6.77;;
16115;SDS011;8162;47.104;15.432;2024-02-16T15:45:00;6.80;;;6.20;;
16115;SDS011;8162;47.104;15.432;2024-02-16T15:48:02;7.33;;;6.37;;
16115;SDS011;8162;47.104;15.432;2024-02-16T15:51:03;7.63;;;6.83;;
16115;SDS011;8162;47.104;15.432;2024-02-16T15:54:07;8.87;;;6.67;;
16115;SDS011;8162;47.104;15.432;2024-02-16T15:57:12;6.30;;;5.67;;
16115;SDS011;8162;47.104;15.432;2024-02-16T16:00:13;9.30;;;7.37;;
16115;SDS011;8162;47.104;15.432;2024-02-16T16:03:14;10.27;;;6.80;;
16115;SDS011;8162;47.104;15.432;2024-02-16T16:06:16;7.53;;;5.83;;
16115;SDS011;8162;47.104;15.432;2024-02-16T16:09:17;6.73;;;5.00;;
16115;SDS011;8162;47.104;15.432;2024-02-16T16:12:18;7.37;;;5.57;;
16115;SDS011;8162;47.104;15.432;2024-02-16T16:15:19;6.73;;;6.13;;
16115;SDS011;8162;47.104;15.432;2024-02-16T16:18:20;6.30;;;5.27;;
16115;SDS011;8162;47.104;15.432;2024-02-16T16:21:22;6.93;;;5.70;;
16115;SDS011;8162;47.104;15.432;2024-02-16T16:24:23;6.30;;;5.70;;
16115;SDS011;8162;47.104;15.432;2024-02-16T16:27:24;9.93;;;6.13;;
16115;SDS011;8162;47.104;15.432;2024-02-16T16:30:24;9.73;;;6.33;;
16115;SDS011;8162;47.104;15.432;2024-02-16T16:33:26;6.50;;;5.53;;
16115;SDS011;8162;47.104;15.432;2024-02-16T16:36:27;8.17;;;5.87;;
16115;SDS011;8162;47.104;15.432;2024-02-16T16:39:28;7.80;;;5.97;;
16115;SDS011;8162;47.104;15.432;2024-02-16T16:42:29;9.20;;;5.63;;
16115;SDS011;8162;47.104;15.432;2024-02-16T16:45:31;7.10;;;5.70;;
16115;SDS011;8162;47.104;15.432;2024-02-16T16:48:32;7.60;;;5.33;;
16115;SDS011;8162;47.104;15.432;2024-02-16T16:51:34;6.80;;;5.90;;
16115;SDS011;8162;47.104;15.432;2024-02-16T16:54:34;6.27;;;5.50;;
16115;SDS011;8162;47.104;15.432;2024-02-16T16:57:38;10.33;;;6.80;;
16115;SDS011;8162;47.104;15.432;2024-02-16T17:00:39;9.20;;;6.57;;
16115;SDS011;8162;47.104;15.432;2024-02-16T17:03:39;8.50;;;5.70;;
16115;SDS011;8162;47.104;15.432;2024-02-16T17:06:40;11.63;;;6.50;;
16115;SDS011;8162;47.104;15.432;2024-02-16T17:09:41;10.60;;;7.03;;
16115;SDS011;8162;47.104;15.432;2024-02-16T17:12:42;8.20;;;6.27;;
16115;SDS011;8162;47.104;15.432;2024-02-16T17:15:44;10.17;;;6.60;;
16115;SDS011;8162;47.104;15.432;2024-02-16T17:18:45;7.67;;;6.07;;
16115;SDS011;8162;47.104;15.432;2024-02-16T17:21:46;7.20;;;5.17;;
16115;SDS011;8162;47.104;15.432;2024-02-16T17:24:47;7.97;;;6.27;;
16115;SDS011;8162;47.104;15.432;2024-02-16T17:27:48;7.20;;;6.13;;
16115;SDS011;8162;47.104;15.432;2024-02-16T17:30:49;8.80;;;5.53;;
16115;SDS011;8162;47.104;15.432;2024-02-16T17:33:50;6.60;;;5.57;;
16115;SDS011;8162;47.104;15.432;2024-02-16T17:36:51;7.27;;;5.73;;
16115;SDS011;8162;47.104;15.432;2024-02-16T17:39:53;6.50;;;5.77;;
16115;SDS011;8162;47.104;15.432;2024-02-16T17:42:54;10.37;;;6.27;;
16115;SDS011;8162;47.104;15.432;2024-02-16T17:45:56;9.50;;;6.63;;
16115;SDS011;8162;47.104;15.432;2024-02-16T17:48:58;9.77;;;6.53;;
16115;SDS011;8162;47.104;15.432;2024-02-16T17:51:59;8.57;;;6.60;;
16115;SDS011;8162;47.104;15.432;2024-02-16T17:55:00;9.10;;;6.80;;
16115;SDS011;8162;47.104;15.432;2024-02-16T17:58:01;7.60;;;6.23;;
16115;SDS011;8162;47.104;15.432;2024-02-16T18:01:02;12.03;;;7.43;;
16115;SDS011;8162;47.104;15.432;2024-02-16T18:04:04;10.03;;;6.53;;
16115;SDS011;8162;47.104;15.432;2024-02-16T18:07:05;8.30;;;7.13;;
16115;SDS011;8162;47.104;15.432;2024-02-16T18:10:09;10.27;;;7.33;;
16115;SDS011;8162;47.104;15.432;2024-02-16T18:13:10;11.50;;;8.30;;